sensor_id;sensor_type;location;lat;lon;timestamp;P1;durP1;ratioP1;P2;durP2;ratioP2
8626;SDS011;4351;51.422;6.794;2023-01-19T00:01:35;13.07;;;9.70;;
8626;SDS011;4351;51.422;6.794;2023-01-19T00:04:04;13.47;;;9.47;;
8626;SDS011;4351;51.422;6.794;2023-01-19T00:06:32;14.30;;;9.40;;
8626;SDS011;4351;51.422;6.794;2023-01-19T00:09:00;15.13;;;9.27;;
8626;SDS011;4351;51.422;6.794;2023-01-19T00:11:28;13.83;;;9.83;;
8626;SDS011;4351;51.422;6.794;2023-01-19T00:13:56;14.80;;;9.13;;
8626;SDS011;4351;51.422;6.794;2023-01-19T00:16:25;12.63;;;9.17;;
8626;SDS011;4351;51.422;6.794;2023-01-19T00:18:54;15.77;;;9.40;;
8626;SDS011;4351;51.422;6.794;2023-01-19T00:21:22;14.87;;;9.50;;
8626;SDS011;4351;51.422;6.794;2023-01-19T00:23:50;17.20;;;9.43;;
8626;SDS011;4351;51.422;6.794;2023-01-19T00:26:18;14.27;;;9.33;;
8626;SDS011;4351;51.422;6.794;2023-01-19T00:28:48;15.60;;;9.37;;
8626;SDS011;4351;51.422;6.794;2023-01-19T00:31:16;13.93;;;9.03;;
8626;SDS011;4351;51.422;6.794;2023-01-19T00:33:48;13.27;;;8.73;;
8626;SDS011;4351;51.422;6.794;2023-01-19T00:36:18;16.23;;;9.33;;
8626;SDS011;4351;51.422;6.794;2023-01-19T00:38:46;14.20;;;9.10;;
8626;SDS011;4351;51.422;6.794;2023-01-19T00:41:14;14.50;;;9.23;;
8626;SDS011;4351;51.422;6.794;2023-01-19T00:43:42;11.80;;;8.93;;
8626;SDS011;4351;51.422;6.794;2023-01-19T00:46:10;12.27;;;9.23;;
8626;SDS011;4351;51.422;6.794;2023-01-19T00:48:38;12.17;;;9.10;;
8626;SDS011;4351;51.422;6.794;2023-01-19T00:51:07;15.23;;;9.90;;
8626;SDS011;4351;51.422;6.794;2023-01-19T00:53:35;13.10;;;9.73;;
8626;SDS011;4351;51.422;6.794;2023-01-19T00:56:04;13.60;;;8.93;;
8626;SDS011;4351;51.422;6.794;2023-01-19T00:58:32;13.57;;;9.07;;
8626;SDS011;4351;51.422;6.794;2023-01-19T01:01:00;14.43;;;9.73;;
8626;SDS011;4351;51.422;6.794;2023-01-19T01:03:30;16.23;;;10.00;;
8626;SDS011;4351;51.422;6.794;2023-01-19T01:05:58;13.57;;;8.90;;
8626;SDS011;4351;51.422;6.794;2023-01-19T01:08:28;14.67;;;9.07;;
8626;SDS011;4351;51.422;6.794;2023-01-19T01:10:56;13.53;;;9.20;;
8626;SDS011;4351;51.422;6.794;2023-01-19T01:13:25;13.30;;;9.10;;
8626;SDS011;4351;51.422;6.794;2023-01-19T01:15:55;15.07;;;9.80;;
8626;SDS011;4351;51.422;6.794;2023-01-19T01:18:24;12.43;;;8.80;;
8626;SDS011;4351;51.422;6.794;2023-01-19T01:20:52;13.93;;;9.03;;
8626;SDS011;4351;51.422;6.794;2023-01-19T01:23:28;16.13;;;9.40;;
8626;SDS011;4351;51.422;6.794;2023-01-19T01:25:57;13.43;;;9.37;;
8626;SDS011;4351;51.422;6.794;2023-01-19T01:28:25;15.40;;;9.43;;
8626;SDS011;4351;51.422;6.794;2023-01-19T01:30:53;14.83;;;9.10;;
8626;SDS011;4351;51.422;6.794;2023-01-19T01:33:22;13.27;;;9.07;;
8626;SDS011;4351;51.422;6.794;2023-01-19T01:36:07;15.07;;;8.43;;
8626;SDS011;4351;51.422;6.794;2023-01-19T01:38:37;14.70;;;9.73;;
8626;SDS011;4351;51.422;6.794;2023-01-19T01:41:05;13.37;;;9.57;;
8626;SDS011;4351;51.422;6.794;2023-01-19T01:43:40;12.73;;;9.13;;
8626;SDS011;4351;51.422;6.794;2023-01-19T01:46:14;16.00;;;9.50;;
8626;SDS011;4351;51.422;6.794;2023-01-19T01:48:44;12.30;;;9.10;;
8626;SDS011;4351;51.422;6.794;2023-01-19T01:51:17;13.60;;;9.10;;
8626;SDS011;4351;51.422;6.794;2023-01-19T01:53:56;16.00;;;9.83;;
8626;SDS011;4351;51.422;6.794;2023-01-19T01:56:40;14.57;;;9.47;;
8626;SDS011;4351;51.422;6.794;2023-01-19T01:59:11;15.43;;;9.03;;
8626;SDS011;4351;51.422;6.794;2023-01-19T02:01:51;14.47;;;9.33;;
8626;SDS011;4351;51.422;6.794;2023-01-19T02:04:38;17.80;;;9.80;;
8626;SDS011;4351;51.422;6.794;2023-01-19T02:07:10;15.10;;;9.03;;
8626;SDS011;4351;51.422;6.794;2023-01-19T02:10:00;15.60;;;10.13;;
8626;SDS011;4351;51.422;6.794;2023-01-19T02:12:45;14.83;;;10.17;;
8626;SDS011;4351;51.422;6.794;2023-01-19T02:15:31;14.90;;;8.83;;
8626;SDS011;4351;51.422;6.794;2023-01-19T02:17:59;16.00;;;9.33;;
8626;SDS011;4351;51.422;6.794;2023-01-19T02:20:28;13.60;;;9.57;;
8626;SDS011;4351;51.422;6.794;2023-01-19T02:22:58;15.43;;;9.67;;
8626;SDS011;4351;51.422;6.794;2023-01-19T02:25:31;12.50;;;9.13;;
8626;SDS011;4351;51.422;6.794;2023-01-19T02:27:59;15.63;;;9.53;;
8626;SDS011;4351;51.422;6.794;2023-01-19T02:30:28;15.40;;;9.90;;
8626;SDS011;4351;51.422;6.794;2023-01-19T02:32:58;16.30;;;9.70;;
8626;SDS011;4351;51.422;6.794;2023-01-19T02:35:26;16.60;;;9.23;;
8626;SDS011;4351;51.422;6.794;2023-01-19T02:37:55;14.77;;;9.30;;
8626;SDS011;4351;51.422;6.794;2023-01-19T02:40:24;15.07;;;9.60;;
8626;SDS011;4351;51.422;6.794;2023-01-19T02:42:56;16.47;;;9.93;;
8626;SDS011;4351;51.422;6.794;2023-01-19T02:45:27;14.43;;;10.13;;
8626;SDS011;4351;51.422;6.794;2023-01-19T02:47:55;14.80;;;9.43;;
8626;SDS011;4351;51.422;6.794;2023-01-19T02:50:30;14.63;;;9.13;;
8626;SDS011;4351;51.422;6.794;2023-01-19T02:53:06;16.70;;;9.17;;
8626;SDS011;4351;51.422;6.794;2023-01-19T02:55:44;16.20;;;10.17;;
8626;SDS011;4351;51.422;6.794;2023-01-19T02:58:22;14.83;;;8.97;;
8626;SDS011;4351;51.422;6.794;2023-01-19T03:01:01;16.27;;;9.47;;
8626;SDS011;4351;51.422;6.794;2023-01-19T03:03:38;16.47;;;9.70;;
8626;SDS011;4351;51.422;6.794;2023-01-19T03:06:16;20.27;;;9.50;;
8626;SDS011;4351;51.422;6.794;2023-01-19T03:08:54;15.37;;;9.33;;
8626;SDS011;4351;51.422;6.794;2023-01-19T03:11:28;15.57;;;10.00;;
8626;SDS011;4351;51.422;6.794;2023-01-19T03:14:07;15.10;;;9.73;;
8626;SDS011;4351;51.422;6.794;2023-01-19T03:16:40;15.47;;;9.63;;
8626;SDS011;4351;51.422;6.794;2023-01-19T03:19:14;16.20;;;9.27;;
8626;SDS011;4351;51.422;6.794;2023-01-19T03:21:46;15.00;;;9.83;;
8626;SDS011;4351;51.422;6.794;2023-01-19T03:24:18;18.37;;;9.40;;
8626;SDS011;4351;51.422;6.794;2023-01-19T03:26:50;13.53;;;9.03;;
8626;SDS011;4351;51.422;6.794;2023-01-19T03:29:27;13.20;;;8.90;;
8626;SDS011;4351;51.422;6.794;2023-01-19T03:31:57;13.17;;;9.13;;
8626;SDS011;4351;51.422;6.794;2023-01-19T03:34:29;15.00;;;9.60;;
8626;SDS011;4351;51.422;6.794;2023-01-19T03:36:58;13.40;;;8.80;;
8626;SDS011;4351;51.422;6.794;2023-01-19T03:39:30;15.77;;;9.20;;
8626;SDS011;4351;51.422;6.794;2023-01-19T03:41:58;14.43;;;9.60;;
8626;SDS011;4351;51.422;6.794;2023-01-19T03:44:31;13.27;;;8.80;;
8626;SDS011;4351;51.422;6.794;2023-01-19T03:47:04;14.83;;;9.80;;
8626;SDS011;4351;51.422;6.794;2023-01-19T03:49:34;15.03;;;8.70;;
8626;SDS011;4351;51.422;6.794;2023-01-19T03:52:04;15.77;;;9.43;;
8626;SDS011;4351;51.422;6.794;2023-01-19T03:54:32;16.97;;;9.77;;
8626;SDS011;4351;51.422;6.794;2023-01-19T03:57:01;18.93;;;10.53;;
8626;SDS011;4351;51.422;6.794;2023-01-19T03:59:30;18.00;;;10.37;;
8626;SDS011;4351;51.422;6.794;2023-01-19T04:01:58;15.70;;;9.73;;
8626;SDS011;4351;51.422;6.794;2023-01-19T04:04:27;18.60;;;10.77;;
8626;SDS011;4351;51.422;6.794;2023-01-19T04:06:55;18.47;;;11.13;;
8626;SDS011;4351;51.422;6.794;2023-01-19T04:09:24;18.60;;;9.30;;
8626;SDS011;4351;51.422;6.794;2023-01-19T04:11:52;18.30;;;11.13;;
8626;SDS011;4351;51.422;6.794;2023-01-19T04:14:21;22.73;;;11.83;;
8626;SDS011;4351;51.422;6.794;2023-01-19T04:16:51;19.63;;;11.80;;
8626;SDS011;4351;51.422;6.794;2023-01-19T04:19:19;19.17;;;11.13;;
8626;SDS011;4351;51.422;6.794;2023-01-19T04:21:47;16.93;;;10.27;;
8626;SDS011;4351;51.422;6.794;2023-01-19T04:24:16;21.77;;;10.97;;
8626;SDS011;4351;51.422;6.794;2023-01-19T04:26:44;19.20;;;10.20;;
8626;SDS011;4351;51.422;6.794;2023-01-19T04:29:12;25.57;;;11.00;;
8626;SDS011;4351;51.422;6.794;2023-01-19T04:31:40;20.80;;;11.27;;
8626;SDS011;4351;51.422;6.794;2023-01-19T04:34:10;21.87;;;10.90;;
8626;SDS011;4351;51.422;6.794;2023-01-19T04:36:38;22.30;;;11.40;;
8626;SDS011;4351;51.422;6.794;2023-01-19T04:39:06;19.60;;;11.07;;
8626;SDS011;4351;51.422;6.794;2023-01-19T04:41:35;20.67;;;11.10;;
8626;SDS011;4351;51.422;6.794;2023-01-19T04:44:04;22.37;;;11.53;;
8626;SDS011;4351;51.422;6.794;2023-01-19T04:46:32;19.37;;;10.97;;
8626;SDS011;4351;51.422;6.794;2023-01-19T04:49:00;22.43;;;12.03;;
8626;SDS011;4351;51.422;6.794;2023-01-19T04:51:31;21.17;;;12.53;;
8626;SDS011;4351;51.422;6.794;2023-01-19T04:53:59;23.10;;;13.17;;
8626;SDS011;4351;51.422;6.794;2023-01-19T04:56:30;23.70;;;14.10;;
8626;SDS011;4351;51.422;6.794;2023-01-19T04:58:58;27.40;;;13.83;;
8626;SDS011;4351;51.422;6.794;2023-01-19T05:01:27;28.17;;;15.40;;
8626;SDS011;4351;51.422;6.794;2023-01-19T05:03:57;25.10;;;14.27;;
8626;SDS011;4351;51.422;6.794;2023-01-19T05:06:25;24.80;;;14.47;;
8626;SDS011;4351;51.422;6.794;2023-01-19T05:08:54;24.77;;;14.17;;
8626;SDS011;4351;51.422;6.794;2023-01-19T05:11:22;24.97;;;14.20;;
8626;SDS011;4351;51.422;6.794;2023-01-19T05:13:51;23.67;;;12.67;;
8626;SDS011;4351;51.422;6.794;2023-01-19T05:16:19;26.20;;;13.40;;
8626;SDS011;4351;51.422;6.794;2023-01-19T05:18:47;26.87;;;13.20;;
8626;SDS011;4351;51.422;6.794;2023-01-19T05:21:15;20.67;;;11.83;;
8626;SDS011;4351;51.422;6.794;2023-01-19T05:23:43;20.80;;;12.07;;
8626;SDS011;4351;51.422;6.794;2023-01-19T05:26:13;15.47;;;10.40;;
8626;SDS011;4351;51.422;6.794;2023-01-19T05:28:41;17.93;;;10.80;;
8626;SDS011;4351;51.422;6.794;2023-01-19T05:31:09;16.17;;;10.90;;
8626;SDS011;4351;51.422;6.794;2023-01-19T05:33:37;16.43;;;9.83;;
8626;SDS011;4351;51.422;6.794;2023-01-19T05:36:06;14.80;;;9.30;;
8626;SDS011;4351;51.422;6.794;2023-01-19T05:38:34;15.67;;;9.60;;
8626;SDS011;4351;51.422;6.794;2023-01-19T05:41:03;16.70;;;9.53;;
8626;SDS011;4351;51.422;6.794;2023-01-19T05:43:32;13.73;;;9.03;;
8626;SDS011;4351;51.422;6.794;2023-01-19T05:46:02;17.57;;;9.10;;
8626;SDS011;4351;51.422;6.794;2023-01-19T05:48:31;15.93;;;9.60;;
8626;SDS011;4351;51.422;6.794;2023-01-19T05:50:59;13.90;;;8.50;;
8626;SDS011;4351;51.422;6.794;2023-01-19T05:53:27;14.77;;;8.30;;
8626;SDS011;4351;51.422;6.794;2023-01-19T05:55:59;13.20;;;8.37;;
8626;SDS011;4351;51.422;6.794;2023-01-19T05:58:27;13.90;;;7.80;;
8626;SDS011;4351;51.422;6.794;2023-01-19T06:01:00;13.03;;;7.47;;
8626;SDS011;4351;51.422;6.794;2023-01-19T06:03:30;11.37;;;7.63;;
8626;SDS011;4351;51.422;6.794;2023-01-19T06:05:59;12.30;;;7.50;;
8626;SDS011;4351;51.422;6.794;2023-01-19T06:08:28;11.93;;;7.37;;
8626;SDS011;4351;51.422;6.794;2023-01-19T06:10:56;13.80;;;7.30;;
8626;SDS011;4351;51.422;6.794;2023-01-19T06:13:24;11.83;;;7.20;;
8626;SDS011;4351;51.422;6.794;2023-01-19T06:15:58;9.27;;;6.83;;
8626;SDS011;4351;51.422;6.794;2023-01-19T06:18:27;8.87;;;6.27;;
8626;SDS011;4351;51.422;6.794;2023-01-19T06:20:55;9.53;;;6.40;;
8626;SDS011;4351;51.422;6.794;2023-01-19T06:23:25;10.93;;;6.33;;
8626;SDS011;4351;51.422;6.794;2023-01-19T06:25:53;10.37;;;6.73;;
8626;SDS011;4351;51.422;6.794;2023-01-19T06:28:21;8.63;;;6.50;;
8626;SDS011;4351;51.422;6.794;2023-01-19T06:30:51;9.60;;;6.33;;
8626;SDS011;4351;51.422;6.794;2023-01-19T06:33:23;8.83;;;5.90;;
8626;SDS011;4351;51.422;6.794;2023-01-19T06:35:54;11.13;;;6.03;;
8626;SDS011;4351;51.422;6.794;2023-01-19T06:38:22;8.67;;;6.03;;
8626;SDS011;4351;51.422;6.794;2023-01-19T06:40:51;9.70;;;5.83;;
8626;SDS011;4351;51.422;6.794;2023-01-19T06:43:20;8.13;;;5.80;;
8626;SDS011;4351;51.422;6.794;2023-01-19T06:45:48;9.63;;;5.60;;
8626;SDS011;4351;51.422;6.794;2023-01-19T06:48:17;9.73;;;5.77;;
8626;SDS011;4351;51.422;6.794;2023-01-19T06:50:47;7.83;;;5.47;;
8626;SDS011;4351;51.422;6.794;2023-01-19T06:53:16;7.40;;;5.77;;
8626;SDS011;4351;51.422;6.794;2023-01-19T06:55:46;8.37;;;5.80;;
8626;SDS011;4351;51.422;6.794;2023-01-19T06:58:14;11.17;;;5.30;;
8626;SDS011;4351;51.422;6.794;2023-01-19T07:00:42;7.63;;;5.43;;
8626;SDS011;4351;51.422;6.794;2023-01-19T07:03:15;9.83;;;6.00;;
8626;SDS011;4351;51.422;6.794;2023-01-19T07:05:49;9.43;;;6.40;;
8626;SDS011;4351;51.422;6.794;2023-01-19T07:08:18;8.13;;;6.13;;
8626;SDS011;4351;51.422;6.794;2023-01-19T07:10:46;9.40;;;6.80;;
8626;SDS011;4351;51.422;6.794;2023-01-19T07:13:35;10.83;;;7.50;;
8626;SDS011;4351;51.422;6.794;2023-01-19T07:16:05;11.50;;;7.57;;
8626;SDS011;4351;51.422;6.794;2023-01-19T07:18:34;10.83;;;7.67;;
8626;SDS011;4351;51.422;6.794;2023-01-19T07:21:04;13.97;;;8.17;;
8626;SDS011;4351;51.422;6.794;2023-01-19T07:23:33;12.13;;;7.90;;
8626;SDS011;4351;51.422;6.794;2023-01-19T07:26:03;12.67;;;7.97;;
8626;SDS011;4351;51.422;6.794;2023-01-19T07:28:32;10.90;;;6.97;;
8626;SDS011;4351;51.422;6.794;2023-01-19T07:31:00;12.60;;;7.30;;
8626;SDS011;4351;51.422;6.794;2023-01-19T07:33:28;13.30;;;7.77;;
8626;SDS011;4351;51.422;6.794;2023-01-19T07:35:56;11.50;;;7.43;;
8626;SDS011;4351;51.422;6.794;2023-01-19T07:38:26;11.53;;;7.43;;
8626;SDS011;4351;51.422;6.794;2023-01-19T07:40:58;12.77;;;8.30;;
8626;SDS011;4351;51.422;6.794;2023-01-19T07:43:27;14.33;;;8.73;;
8626;SDS011;4351;51.422;6.794;2023-01-19T07:45:55;14.53;;;8.77;;
8626;SDS011;4351;51.422;6.794;2023-01-19T07:48:23;14.47;;;9.50;;
8626;SDS011;4351;51.422;6.794;2023-01-19T07:50:52;15.20;;;9.43;;
8626;SDS011;4351;51.422;6.794;2023-01-19T07:53:20;14.93;;;9.57;;
8626;SDS011;4351;51.422;6.794;2023-01-19T07:55:54;15.07;;;10.13;;
8626;SDS011;4351;51.422;6.794;2023-01-19T07:58:23;17.00;;;9.83;;
8626;SDS011;4351;51.422;6.794;2023-01-19T08:00:51;14.33;;;9.67;;
8626;SDS011;4351;51.422;6.794;2023-01-19T08:03:20;17.43;;;10.20;;
8626;SDS011;4351;51.422;6.794;2023-01-19T08:05:48;16.87;;;10.73;;
8626;SDS011;4351;51.422;6.794;2023-01-19T08:08:18;16.37;;;10.00;;
8626;SDS011;4351;51.422;6.794;2023-01-19T08:10:48;17.60;;;10.83;;
8626;SDS011;4351;51.422;6.794;2023-01-19T08:13:18;17.00;;;10.70;;
8626;SDS011;4351;51.422;6.794;2023-01-19T08:15:47;17.37;;;10.57;;
8626;SDS011;4351;51.422;6.794;2023-01-19T08:18:17;18.83;;;11.50;;
8626;SDS011;4351;51.422;6.794;2023-01-19T08:20:45;20.07;;;11.23;;
8626;SDS011;4351;51.422;6.794;2023-01-19T08:23:13;19.83;;;11.23;;
8626;SDS011;4351;51.422;6.794;2023-01-19T08:25:43;18.50;;;10.93;;
8626;SDS011;4351;51.422;6.794;2023-01-19T08:28:13;16.50;;;10.83;;
8626;SDS011;4351;51.422;6.794;2023-01-19T08:30:43;15.27;;;10.43;;
8626;SDS011;4351;51.422;6.794;2023-01-19T08:33:19;15.37;;;10.13;;
8626;SDS011;4351;51.422;6.794;2023-01-19T08:35:49;23.00;;;9.90;;
8626;SDS011;4351;51.422;6.794;2023-01-19T08:38:18;16.93;;;10.53;;
8626;SDS011;4351;51.422;6.794;2023-01-19T08:40:47;16.10;;;9.53;;
8626;SDS011;4351;51.422;6.794;2023-01-19T08:43:16;14.17;;;9.40;;
8626;SDS011;4351;51.422;6.794;2023-01-19T08:45:49;17.30;;;9.70;;
8626;SDS011;4351;51.422;6.794;2023-01-19T08:48:19;13.27;;;9.37;;
8626;SDS011;4351;51.422;6.794;2023-01-19T08:50:49;14.37;;;8.97;;
8626;SDS011;4351;51.422;6.794;2023-01-19T08:53:18;15.83;;;9.87;;
8626;SDS011;4351;51.422;6.794;2023-01-19T08:55:49;17.90;;;9.97;;
8626;SDS011;4351;51.422;6.794;2023-01-19T08:58:22;15.47;;;9.73;;
8626;SDS011;4351;51.422;6.794;2023-01-19T09:00:52;16.10;;;10.17;;
8626;SDS011;4351;51.422;6.794;2023-01-19T09:03:21;12.17;;;9.20;;
8626;SDS011;4351;51.422;6.794;2023-01-19T09:05:49;12.53;;;9.23;;
8626;SDS011;4351;51.422;6.794;2023-01-19T09:08:17;14.33;;;9.90;;
8626;SDS011;4351;51.422;6.794;2023-01-19T09:10:46;13.53;;;10.10;;
8626;SDS011;4351;51.422;6.794;2023-01-19T09:13:16;15.93;;;9.60;;
8626;SDS011;4351;51.422;6.794;2023-01-19T09:15:45;16.40;;;9.97;;
8626;SDS011;4351;51.422;6.794;2023-01-19T09:18:15;16.30;;;11.13;;
8626;SDS011;4351;51.422;6.794;2023-01-19T09:20:45;15.47;;;9.57;;
8626;SDS011;4351;51.422;6.794;2023-01-19T09:23:15;15.23;;;10.00;;
8626;SDS011;4351;51.422;6.794;2023-01-19T09:25:45;13.20;;;9.20;;
8626;SDS011;4351;51.422;6.794;2023-01-19T09:28:15;15.20;;;10.03;;
8626;SDS011;4351;51.422;6.794;2023-01-19T09:30:44;17.03;;;10.43;;
8626;SDS011;4351;51.422;6.794;2023-01-19T09:33:13;16.50;;;10.97;;
8626;SDS011;4351;51.422;6.794;2023-01-19T09:35:44;18.57;;;11.33;;
8626;SDS011;4351;51.422;6.794;2023-01-19T09:38:13;21.33;;;11.50;;
8626;SDS011;4351;51.422;6.794;2023-01-19T09:40:43;20.73;;;12.10;;
8626;SDS011;4351;51.422;6.794;2023-01-19T09:43:16;19.60;;;11.20;;
8626;SDS011;4351;51.422;6.794;2023-01-19T09:45:52;22.17;;;12.37;;
8626;SDS011;4351;51.422;6.794;2023-01-19T09:48:43;20.10;;;12.80;;
8626;SDS011;4351;51.422;6.794;2023-01-19T09:51:15;20.47;;;12.70;;
8626;SDS011;4351;51.422;6.794;2023-01-19T09:53:56;20.27;;;13.10;;
8626;SDS011;4351;51.422;6.794;2023-01-19T09:56:29;20.40;;;13.30;;
8626;SDS011;4351;51.422;6.794;2023-01-19T09:58:59;19.50;;;12.90;;
8626;SDS011;4351;51.422;6.794;2023-01-19T10:01:39;22.33;;;13.00;;
8626;SDS011;4351;51.422;6.794;2023-01-19T10:04:30;24.70;;;14.30;;
8626;SDS011;4351;51.422;6.794;2023-01-19T10:07:13;23.83;;;13.30;;
8626;SDS011;4351;51.422;6.794;2023-01-19T10:09:54;31.00;;;14.83;;
8626;SDS011;4351;51.422;6.794;2023-01-19T10:12:32;23.83;;;13.97;;
8626;SDS011;4351;51.422;6.794;2023-01-19T10:15:11;28.40;;;14.67;;
8626;SDS011;4351;51.422;6.794;2023-01-19T10:17:48;24.97;;;14.23;;
8626;SDS011;4351;51.422;6.794;2023-01-19T10:20:28;24.37;;;14.40;;
8626;SDS011;4351;51.422;6.794;2023-01-19T10:23:02;31.50;;;14.60;;
8626;SDS011;4351;51.422;6.794;2023-01-19T10:25:32;29.50;;;16.30;;
8626;SDS011;4351;51.422;6.794;2023-01-19T10:28:00;30.13;;;15.90;;
8626;SDS011;4351;51.422;6.794;2023-01-19T10:30:32;28.17;;;15.20;;
8626;SDS011;4351;51.422;6.794;2023-01-19T10:33:01;30.67;;;15.97;;
8626;SDS011;4351;51.422;6.794;2023-01-19T10:35:31;29.40;;;16.40;;
8626;SDS011;4351;51.422;6.794;2023-01-19T10:37:59;32.90;;;15.63;;
8626;SDS011;4351;51.422;6.794;2023-01-19T10:40:30;31.90;;;16.07;;
8626;SDS011;4351;51.422;6.794;2023-01-19T10:43:06;29.57;;;15.97;;
8626;SDS011;4351;51.422;6.794;2023-01-19T10:46:14;31.87;;;17.40;;
8626;SDS011;4351;51.422;6.794;2023-01-19T10:48:49;24.80;;;14.73;;
8626;SDS011;4351;51.422;6.794;2023-01-19T10:51:19;31.43;;;15.37;;
8626;SDS011;4351;51.422;6.794;2023-01-19T10:53:53;36.37;;;16.70;;
8626;SDS011;4351;51.422;6.794;2023-01-19T10:56:24;34.43;;;16.60;;
8626;SDS011;4351;51.422;6.794;2023-01-19T10:58:57;30.00;;;15.50;;
8626;SDS011;4351;51.422;6.794;2023-01-19T11:01:27;29.10;;;15.77;;
8626;SDS011;4351;51.422;6.794;2023-01-19T11:03:56;31.60;;;17.43;;
8626;SDS011;4351;51.422;6.794;2023-01-19T11:06:32;33.87;;;15.37;;
8626;SDS011;4351;51.422;6.794;2023-01-19T11:09:11;36.10;;;16.90;;
8626;SDS011;4351;51.422;6.794;2023-01-19T11:11:47;32.67;;;16.23;;
8626;SDS011;4351;51.422;6.794;2023-01-19T11:14:18;27.67;;;15.73;;
8626;SDS011;4351;51.422;6.794;2023-01-19T11:16:49;31.20;;;16.27;;
8626;SDS011;4351;51.422;6.794;2023-01-19T11:19:25;33.33;;;16.83;;
8626;SDS011;4351;51.422;6.794;2023-01-19T11:22:10;33.47;;;17.30;;
8626;SDS011;4351;51.422;6.794;2023-01-19T11:24:47;35.70;;;17.37;;
8626;SDS011;4351;51.422;6.794;2023-01-19T11:27:16;33.93;;;16.53;;
8626;SDS011;4351;51.422;6.794;2023-01-19T11:29:47;33.90;;;16.80;;
8626;SDS011;4351;51.422;6.794;2023-01-19T11:32:18;33.33;;;17.20;;
8626;SDS011;4351;51.422;6.794;2023-01-19T11:34:48;35.57;;;18.53;;
8626;SDS011;4351;51.422;6.794;2023-01-19T11:37:28;29.87;;;17.17;;
8626;SDS011;4351;51.422;6.794;2023-01-19T11:40:00;31.60;;;16.50;;
8626;SDS011;4351;51.422;6.794;2023-01-19T11:42:32;31.90;;;17.43;;
8626;SDS011;4351;51.422;6.794;2023-01-19T11:45:03;35.90;;;17.40;;
8626;SDS011;4351;51.422;6.794;2023-01-19T11:47:38;37.70;;;18.43;;
8626;SDS011;4351;51.422;6.794;2023-01-19T11:50:12;29.83;;;16.80;;
8626;SDS011;4351;51.422;6.794;2023-01-19T11:52:50;41.13;;;18.03;;
8626;SDS011;4351;51.422;6.794;2023-01-19T11:55:24;38.07;;;19.17;;
8626;SDS011;4351;51.422;6.794;2023-01-19T11:58:01;30.77;;;17.30;;
8626;SDS011;4351;51.422;6.794;2023-01-19T12:00:31;38.87;;;16.90;;
8626;SDS011;4351;51.422;6.794;2023-01-19T12:03:05;37.90;;;17.87;;
8626;SDS011;4351;51.422;6.794;2023-01-19T12:05:42;35.50;;;17.60;;
8626;SDS011;4351;51.422;6.794;2023-01-19T12:08:19;33.93;;;16.97;;
8626;SDS011;4351;51.422;6.794;2023-01-19T12:10:50;31.20;;;16.33;;
8626;SDS011;4351;51.422;6.794;2023-01-19T12:13:23;34.47;;;16.80;;
8626;SDS011;4351;51.422;6.794;2023-01-19T12:15:53;38.47;;;16.90;;
8626;SDS011;4351;51.422;6.794;2023-01-19T12:18:25;31.63;;;16.03;;
8626;SDS011;4351;51.422;6.794;2023-01-19T12:20:56;29.07;;;16.50;;
8626;SDS011;4351;51.422;6.794;2023-01-19T12:23:33;29.83;;;15.77;;
8626;SDS011;4351;51.422;6.794;2023-01-19T12:26:30;34.93;;;16.73;;
8626;SDS011;4351;51.422;6.794;2023-01-19T12:29:05;29.73;;;16.03;;
8626;SDS011;4351;51.422;6.794;2023-01-19T12:31:38;30.27;;;15.50;;
8626;SDS011;4351;51.422;6.794;2023-01-19T12:34:27;29.70;;;15.53;;
8626;SDS011;4351;51.422;6.794;2023-01-19T12:37:03;32.93;;;15.83;;
8626;SDS011;4351;51.422;6.794;2023-01-19T12:39:35;30.17;;;16.13;;
8626;SDS011;4351;51.422;6.794;2023-01-19T12:42:15;32.97;;;16.83;;
8626;SDS011;4351;51.422;6.794;2023-01-19T12:44:46;35.77;;;16.87;;
8626;SDS011;4351;51.422;6.794;2023-01-19T12:47:19;31.10;;;15.67;;
8626;SDS011;4351;51.422;6.794;2023-01-19T12:49:50;29.60;;;16.30;;
8626;SDS011;4351;51.422;6.794;2023-01-19T12:52:24;27.67;;;15.97;;
8626;SDS011;4351;51.422;6.794;2023-01-19T12:55:05;35.63;;;16.50;;
8626;SDS011;4351;51.422;6.794;2023-01-19T12:57:46;34.67;;;17.43;;
8626;SDS011;4351;51.422;6.794;2023-01-19T13:00:29;40.73;;;19.73;;
8626;SDS011;4351;51.422;6.794;2023-01-19T13:02:58;32.07;;;17.00;;
8626;SDS011;4351;51.422;6.794;2023-01-19T13:08:19;28.60;;;15.60;;
8626;SDS011;4351;51.422;6.794;2023-01-19T13:23:22;27.20;;;13.57;;
8626;SDS011;4351;51.422;6.794;2023-01-19T13:25:52;24.70;;;13.27;;
8626;SDS011;4351;51.422;6.794;2023-01-19T13:28:34;23.40;;;13.03;;
8626;SDS011;4351;51.422;6.794;2023-01-19T13:31:07;31.60;;;13.43;;
8626;SDS011;4351;51.422;6.794;2023-01-19T13:33:37;22.60;;;12.30;;
8626;SDS011;4351;51.422;6.794;2023-01-19T13:36:17;27.20;;;13.30;;
8626;SDS011;4351;51.422;6.794;2023-01-19T13:38:50;22.40;;;12.23;;
8626;SDS011;4351;51.422;6.794;2023-01-19T13:41:19;20.77;;;12.37;;
8626;SDS011;4351;51.422;6.794;2023-01-19T13:43:51;22.73;;;12.47;;
8626;SDS011;4351;51.422;6.794;2023-01-19T13:46:25;23.27;;;12.53;;
8626;SDS011;4351;51.422;6.794;2023-01-19T13:48:55;23.63;;;12.53;;
8626;SDS011;4351;51.422;6.794;2023-01-19T13:51:26;24.67;;;12.50;;
8626;SDS011;4351;51.422;6.794;2023-01-19T13:53:56;22.30;;;11.67;;
8626;SDS011;4351;51.422;6.794;2023-01-19T13:56:27;26.40;;;12.73;;
8626;SDS011;4351;51.422;6.794;2023-01-19T13:58:56;26.10;;;12.63;;
8626;SDS011;4351;51.422;6.794;2023-01-19T14:01:30;27.73;;;13.37;;
8626;SDS011;4351;51.422;6.794;2023-01-19T14:03:59;21.17;;;12.10;;
8626;SDS011;4351;51.422;6.794;2023-01-19T14:06:30;22.67;;;12.60;;
8626;SDS011;4351;51.422;6.794;2023-01-19T14:12:08;23.83;;;12.57;;
8626;SDS011;4351;51.422;6.794;2023-01-19T14:14:39;26.70;;;12.10;;
8626;SDS011;4351;51.422;6.794;2023-01-19T14:17:17;22.10;;;13.03;;
8626;SDS011;4351;51.422;6.794;2023-01-19T14:19:48;25.37;;;12.87;;
8626;SDS011;4351;51.422;6.794;2023-01-19T14:22:18;27.20;;;14.20;;
8626;SDS011;4351;51.422;6.794;2023-01-19T14:24:47;26.97;;;14.27;;
8626;SDS011;4351;51.422;6.794;2023-01-19T14:27:17;27.57;;;16.50;;
8626;SDS011;4351;51.422;6.794;2023-01-19T14:29:48;29.50;;;16.47;;
8626;SDS011;4351;51.422;6.794;2023-01-19T14:32:20;29.43;;;15.87;;
8626;SDS011;4351;51.422;6.794;2023-01-19T14:34:50;30.17;;;15.53;;
8626;SDS011;4351;51.422;6.794;2023-01-19T14:37:21;28.43;;;16.43;;
8626;SDS011;4351;51.422;6.794;2023-01-19T14:39:55;26.17;;;15.73;;
8626;SDS011;4351;51.422;6.794;2023-01-19T14:42:27;27.60;;;14.93;;
8626;SDS011;4351;51.422;6.794;2023-01-19T14:44:58;27.33;;;14.33;;
8626;SDS011;4351;51.422;6.794;2023-01-19T14:47:43;20.67;;;13.00;;
8626;SDS011;4351;51.422;6.794;2023-01-19T14:50:20;27.10;;;13.73;;
8626;SDS011;4351;51.422;6.794;2023-01-19T14:52:51;22.97;;;12.37;;
8626;SDS011;4351;51.422;6.794;2023-01-19T14:55:26;22.93;;;12.93;;
8626;SDS011;4351;51.422;6.794;2023-01-19T14:58:00;19.37;;;12.00;;
8626;SDS011;4351;51.422;6.794;2023-01-19T15:00:28;22.37;;;12.47;;
8626;SDS011;4351;51.422;6.794;2023-01-19T15:02:56;22.77;;;13.40;;
8626;SDS011;4351;51.422;6.794;2023-01-19T15:05:24;23.20;;;13.17;;
8626;SDS011;4351;51.422;6.794;2023-01-19T15:07:52;25.43;;;13.07;;
8626;SDS011;4351;51.422;6.794;2023-01-19T15:10:22;22.67;;;12.03;;
8626;SDS011;4351;51.422;6.794;2023-01-19T15:12:53;20.00;;;11.67;;
8626;SDS011;4351;51.422;6.794;2023-01-19T15:15:23;22.43;;;12.33;;
8626;SDS011;4351;51.422;6.794;2023-01-19T15:17:55;25.03;;;12.80;;
8626;SDS011;4351;51.422;6.794;2023-01-19T15:20:24;24.57;;;13.20;;
8626;SDS011;4351;51.422;6.794;2023-01-19T15:22:52;21.90;;;12.17;;
8626;SDS011;4351;51.422;6.794;2023-01-19T15:25:21;22.80;;;11.63;;
8626;SDS011;4351;51.422;6.794;2023-01-19T15:27:53;21.73;;;12.47;;
8626;SDS011;4351;51.422;6.794;2023-01-19T15:30:25;22.17;;;13.43;;
8626;SDS011;4351;51.422;6.794;2023-01-19T15:32:56;19.87;;;12.37;;
8626;SDS011;4351;51.422;6.794;2023-01-19T15:35:24;25.10;;;12.60;;
8626;SDS011;4351;51.422;6.794;2023-01-19T15:37:52;27.30;;;13.10;;
8626;SDS011;4351;51.422;6.794;2023-01-19T15:40:20;25.77;;;14.20;;